Latest Coastal Weather Observations for Melbourne (Olympic Park)

IDV60701

Issued at 2:21 am EST Thursday 30 June 2016 (issued every 10 minutes, with the page automatically refreshed every 10 minutes)

About coastal observations | Map of coastal stations | Coastal observations for VIC | Marine services | Other Formats
Station Details ID: 086338 Name: MELBOURNE (OLYMPIC PARK) Lat: -37.83 Lon: 144.98 Height: 7.53 m
Data from the previous 72 hours. | See also: Recent months at Melbourne (Olympic Park)
Date/Time
EST
Temp
°C
Wind Pressure Rain since
9am
mm
Weather Cloud Vis
km
Sea
Height
m
Swell
Dir  Spd
kts
Gust
kts
hPa Trend Height
m
Period
s
Dir
30/02:00am 10.9 N 11 19 1017.2 - 0.0 - - - - - - -
30/01:30am 11.1 N 13 23 1017.2 - 0.0 - - - - - - -
30/01:00am 11.3 NNW 14 22 1017.6 - 0.0 - - - - - - -
30/12:30am 11.5 NNW 11 18 1018.2 - 0.0 - - - - - - -
30/12:00am 11.5 N 11 18 1018.6 - 0.0 - - - - - - -
 
Date/Time
EST
Temp
°C
Wind Pressure Rain since
9am
mm
Weather Cloud Vis
km
Sea
Height
m
Swell
Dir  Spd
kts
Gust
kts
hPa Trend Height
m
Period
s
Dir
29/11:30pm 11.7 N 13 19 1018.9 - 0.0 - - - - - - -
29/11:00pm 11.8 N 13 23 1018.9 - 0.0 - - - - - - -
29/10:30pm 11.7 N 13 23 1018.7 - 0.0 - - - - - - -
29/10:00pm 11.9 N 11 18 1018.8 - 0.0 - - - - - - -
29/09:30pm 12.1 N 14 22 1019.1 - 0.0 - - - - - - -
29/09:00pm 12.3 N 13 22 1019.2 - 0.0 - - - - - - -
29/08:30pm 12.0 N 7 11 1019.6 - 0.0 - - - - - - -
29/08:00pm 11.9 N 5 7 1020.2 - 0.0 - - - - - - -
29/07:30pm 11.9 N 7 11 1020.5 - 0.0 - - - - - - -
29/07:00pm 12.0 NNE 7 10 1020.7 - 0.0 - - - - - - -
29/06:30pm 12.1 N 7 12 1020.9 - 0.0 - - - - - - -
29/06:00pm 12.5 N 8 12 1021.1 - 0.0 - - - - - - -
29/05:30pm 12.7 N 9 16 1021.3 - 0.0 - - - - - - -
29/05:00pm 13.4 N 11 17 1021.6 - 0.0 - - - - - - -
29/04:30pm 13.8 N 10 17 1022.0 - 0.0 - - - - - - -
29/04:00pm 14.2 N 12 22 1022.4 - 0.0 - - - - - - -
29/03:30pm 14.7 N 11 17 1022.4 - 0.0 - - - - - - -
29/03:00pm 14.7 N 11 19 1022.5 - 0.0 - - - - - - -
29/02:30pm 14.8 N 10 17 1022.8 - 0.0 - - - - - - -
29/02:00pm 14.4 NNW 12 17 1023.2 - 0.0 - - - - - - -
29/01:30pm 15.2 N 10 14 1023.8 - 0.0 - - - - - - -
29/01:00pm 15.0 NNE 9 15 1024.3 - 0.0 - - - - - - -
29/12:30pm 14.6 N 9 13 1024.9 - 0.0 - - - - - - -
29/12:00pm 13.7 NNE 10 14 1025.5 - 0.0 - - - - - - -
29/11:30am 14.2 NNE 8 13 1026.2 - 0.0 - - - - - - -
29/11:00am 13.9 N 7 12 1026.6 - 0.0 - - - - - - -
29/10:30am 13.3 N 7 11 1026.9 - 0.0 - - - - - - -
29/10:00am 12.5 N 8 12 1026.9 - 0.0 - - - - - - -
29/09:30am 11.7 N 8 11 1026.8 - 0.0 - - - - - - -
29/09:00am 10.7 N 7 11 1026.8 - 0.2 - - - - - - -
29/08:30am 9.7 N 7 11 1026.7 - 0.2 - - - - - - -
29/08:00am 9.3 N 6 9 1026.5 - 0.2 - - - - - - -
29/07:30am 9.0 N 5 7 1026.5 - 0.2 - - - - - - -
29/07:00am 9.6 N 9 11 1026.3 - 0.2 - - - - - - -
29/06:30am 9.9 N 9 11 1026.2 - 0.2 - - - - - - -
29/06:00am 10.1 N 8 10 1025.9 - 0.2 - - - - - - -
29/05:30am 9.8 N 7 9 1025.9 - 0.2 - - - - - - -
29/05:00am 9.7 N 7 9 1025.7 - 0.2 - - - - - - -
29/04:30am 9.9 N 7 10 1025.7 - 0.2 - - - - - - -
29/04:00am 10.0 N 6 8 1025.7 - 0.2 - - - - - - -
29/03:30am 10.0 N 7 9 1025.8 - 0.2 - - - - - - -
29/03:00am 10.0 N 7 9 1025.6 - 0.2 - - - - - - -
29/02:30am 10.1 N 6 10 1025.6 - 0.2 - - - - - - -
29/02:00am 10.6 N 7 9 1025.8 - 0.2 - - - - - - -
29/01:30am 10.7 N 6 9 1025.8 - 0.2 - - - - - - -
29/01:00am 10.5 N 5 7 1025.9 - 0.0 - - - - - - -
29/12:30am 10.6 N 5 7 1026.0 - 0.0 - - - - - - -
29/12:00am 10.6 N 6 9 1026.0 - 0.0 - - - - - - -
 
Date/Time
EST
Temp
°C
Wind Pressure Rain since
9am
mm
Weather Cloud Vis
km
Sea
Height
m
Swell
Dir  Spd
kts
Gust
kts
hPa Trend Height
m
Period
s
Dir
28/11:30pm 10.7 N 7 10 1026.2 - 0.0 - - - - - - -
28/11:00pm 11.0 N 8 11 1026.3 - 0.0 - - - - - - -
28/10:30pm 11.0 N 7 11 1026.3 - 0.0 - - - - - - -
28/10:00pm 11.2 N 7 9 1026.3 - 0.0 - - - - - - -
28/09:30pm 11.5 N 7 10 1026.3 - 0.0 - - - - - - -
28/09:00pm 11.3 N 7 9 1026.1 - 0.0 Showers - - - - - -
28/08:30pm 11.1 N 7 11 1026.0 - 0.0 - - - - - - -
28/08:00pm 11.3 N 7 11 1025.8 - 0.0 - - - - - - -
28/07:30pm 11.6 N 7 9 1025.8 - 0.0 - - - - - - -
28/07:00pm 11.7 N 7 12 1025.5 - 0.0 - - - - - - -
28/06:30pm 11.9 N 6 9 1025.3 - 0.0 - - - - - - -
28/06:00pm 12.2 N 7 11 1024.9 - 0.0 - - - - - - -
28/05:30pm 12.3 N 9 13 1024.5 - 0.0 - - - - - - -
28/05:00pm 12.9 N 7 11 1024.3 - 0.0 - - - - - - -
28/04:30pm 13.4 N 7 10 1024.0 - 0.0 - - - - - - -
28/04:00pm 15.6 NW 5 10 1023.8 - 0.0 - - - - - - -
28/03:30pm 15.2 N 6 10 1023.6 - 0.0 - - - - - - -
28/03:00pm 16.1 NW 5 7 1023.5 - 0.0 - - - - - - -
28/02:30pm 14.7 N 6 8 1023.5 - 0.0 - - - - - - -
28/02:00pm 15.6 N 7 9 1023.3 - 0.0 - - - - - - -
28/01:30pm 15.5 NNW 6 8 1023.3 - 0.0 - - - - - - -
28/01:00pm 15.1 N 7 10 1023.6 - 0.0 - - - - - - -
28/12:30pm 14.4 N 6 11 1023.6 - 0.0 - - - - - - -
28/12:00pm 13.6 N 9 12 1023.9 - 0.0 - - - - - - -
28/11:30am 13.5 N 7 11 1024.1 - 0.0 - - - - - - -
28/11:00am 13.3 N 8 11 1024.1 - 0.0 - - - - - - -
28/10:30am 12.9 N 7 11 1024.2 - 0.0 - - - - - - -
28/10:00am 11.5 N 5 9 1024.2 - 0.0 - - - - - - -
28/09:30am 10.5 N 4 7 1024.0 - 0.0 - - - - - - -
28/09:00am 9.7 N 5 8 1023.7 - 0.2 - - - - - - -
28/08:30am 8.5 N 6 9 1023.5 - 0.2 - - - - - - -
28/08:00am 8.5 NNE 6 9 1023.3 - 0.2 - - - - - - -
28/07:30am 8.6 N 5 8 1023.0 - 0.2 - - - - - - -
28/07:00am 8.4 N 4 7 1022.8 - 0.2 - - - - - - -
28/06:30am 8.1 N 4 7 1022.5 - 0.2 - - - - - - -
28/06:00am 8.0 N 6 8 1022.2 - 0.2 - - - - - - -
28/05:30am 7.5 N 6 8 1022.0 - 0.2 - - - - - - -
28/05:00am 7.2 N 6 8 1021.9 - 0.2 - - - - - - -
28/04:30am 7.0 N 5 8 1021.7 - 0.2 - - - - - - -
28/04:00am 6.3 NNE 3 6 1021.6 - 0.2 - - - - - - -
28/03:30am 6.3 NNE 5 6 1021.7 - 0.2 - - - - - - -
28/03:00am 5.2 CALM 0 3 1021.6 - 0.2 - - - - - - -
28/02:30am 5.4 E 2 4 1021.7 - 0.2 - - - - - - -
28/02:00am 5.4 CALM 0 0 1021.6 - 0.2 - - - - - - -
28/01:30am 6.5 N 3 5 1021.4 - 0.2 - - - - - - -
28/01:00am 6.2 NE 3 4 1021.4 - 0.2 - - - - - - -
28/12:30am 6.3 NNW 3 6 1021.5 - 0.2 - - - - - - -
28/12:00am 6.8 NNW 2 4 1021.4 - 0.2 - - - - - - -
 
Date/Time
EST
Temp
°C
Wind Pressure Rain since
9am
mm
Weather Cloud Vis
km
Sea
Height
m
Swell
Dir  Spd
kts
Gust
kts
hPa Trend Height
m
Period
s
Dir
27/11:30pm 7.1 NNW 3 5 1021.3 - 0.2 - - - - - - -
27/11:00pm 6.9 NE 1 4 1021.3 - 0.2 - - - - - - -
27/10:30pm 8.0 N 4 7 1021.2 - 0.2 - - - - - - -
27/10:00pm 8.1 NNW 5 7 1021.1 - 0.2 - - - - - - -
27/09:30pm 7.5 N 1 4 1020.9 - 0.2 - - - - - - -
27/09:00pm 7.8 NNW 3 7 1020.7 - 0.2 - - - - - - -
27/08:30pm 7.2 CALM 0 1 1020.6 - 0.2 - - - - - - -
27/08:00pm 7.8 CALM 0 3 1020.4 - 0.2 - - - - - - -
27/07:30pm 8.6 NW 3 5 1020.1 - 0.2 - - - - - - -
27/07:00pm 9.3 CALM 0 0 1019.8 - 0.2 - - - - - - -
27/06:30pm 10.3 N 4 6 1019.5 - 0.2 - - - - - - -
27/06:00pm 10.2 N 4 7 1019.3 - 0.2 - - - - - - -
27/05:30pm 10.2 NNW 4 6 1019.1 - 0.2 - - - - - - -
27/05:00pm 10.4 N 5 6 1018.5 - 0.2 - - - - - - -
27/04:30pm 10.4 N 4 5 1018.3 - 0.2 - - - - - - -
27/04:00pm 10.3 N 3 5 1018.4 - 0.2 - - - - - - -
27/03:30pm 10.2 NNW 3 5 1018.2 - 0.2 - - - - - - -
27/03:00pm 10.2 N 4 5 1017.9 - 0.0 - - - - - - -
27/02:30pm 9.9 N 5 7 1017.6 - 0.0 - - - - - - -
27/02:00pm 10.4 N 4 6 1017.5 - 0.0 - - - - - - -
27/01:30pm 10.2 N 5 7 1017.5 - 0.0 - - - - - - -
27/01:00pm 10.0 N 5 9 1017.6 - 0.0 - - - - - - -
27/12:30pm 9.6 NNW 5 9 1017.6 - 0.0 - - - - - - -
27/12:00pm 9.4 N 6 9 1017.8 - 0.0 - - - - - - -
27/11:30am 9.0 N 5 10 1018.0 - 0.0 - - - - - - -
27/11:00am 8.6 N 4 7 1018.1 - 0.0 - - - - - - -
27/10:30am 8.8 N 5 8 1018.1 - 0.0 - - - - - - -
27/10:00am 8.5 N 6 10 1018.0 - 0.0 - - - - - - -
27/09:30am 8.0 N 7 11 1017.9 - 0.0 - - - - - - -
27/09:00am 7.8 N 5 9 1017.7 - 0.2 - - - - - - -
27/08:30am 7.8 N 6 9 1017.6 - 0.2 - - - - - - -
27/08:00am 7.7 N 7 10 1017.3 - 0.2 - - - - - - -
27/07:30am 7.6 N 5 9 1017.1 - 0.2 - - - - - - -
27/07:00am 7.5 N 5 9 1016.9 - 0.2 - - - - - - -
27/06:30am 7.5 N 6 11 1016.7 - 0.2 - - - - - - -
27/06:00am 7.6 N 6 9 1016.5 - 0.0 - - - - - - -
27/05:30am 7.7 N 5 7 1016.1 - 0.0 - - - - - - -
27/05:00am 7.5 NNE 5 7 1016.0 - 0.0 - - - - - - -
27/04:30am 7.3 N 5 6 1016.0 - 0.0 - - - - - - -
27/04:00am 7.0 NNE 5 8 1016.0 - 0.0 - - - - - - -
27/03:30am 6.8 N 5 9 1016.1 - 0.0 - - - - - - -
27/03:00am 7.1 N 6 8 1016.2 - 0.0 - - - - - - -
27/02:30am 7.0 N 7 9 1016.3 - 0.0 - - - - - - -

Other Formats:

Comma delimited format used in spreadsheet applications
http://www.bom.gov.au/fwo/IDV60701/IDV60701.95936.axf

JavaScript Object Notation format (JSON) in row-major order
http://www.bom.gov.au/fwo/IDV60701/IDV60701.95936.json